Terminal Aerodrome Forecast
Issued by NWS Paducah, KY

Home | Current Version | Previous Version | Text Only | Print | Product List | Glossary On
Versions: 1 2 3 4 5 6 7 8 9 10 11 12 13 14 15 16 17 18 19 20 21 22 23 24 25 26
000
FTUS43 KPAH 140534
TAFEVV
TAF
KEVV 140534Z 1406/1506 03003KT 1SM -DZ BR VCSH OVC002
     FM140900 05002KT 1/2SM -DZ FG VV002
     FM141400 33004KT 1 1/2SM -RA BR OVC003
     FM142200 36005KT 2SM BR OVC003=

USA.gov is the U.S. government's official web portal to all federal, state and local government web resources and services.